sensor_id;sensor_type;location;lat;lon;timestamp;pressure;altitude;pressure_sealevel;temperature;humidity
66880;BME280;53789;51.392;10.234;2023-03-11T00:00:15;96424.25;;;-1.48;94.21
66880;BME280;53789;51.392;10.234;2023-03-11T00:00:39;96429.38;;;-1.47;95.06
66880;BME280;53789;51.392;10.234;2023-03-11T00:00:59;96426.41;;;-1.45;94.57
66880;BME280;53789;51.392;10.234;2023-03-11T00:01:20;96431.78;;;-1.45;93.81
66880;BME280;53789;51.392;10.234;2023-03-11T00:01:40;96442.59;;;-1.45;93.80
66880;BME280;53789;51.392;10.234;2023-03-11T00:02:01;96446.34;;;-1.46;94.26
66880;BME280;53789;51.392;10.234;2023-03-11T00:02:21;96439.09;;;-1.46;93.54
66880;BME280;53789;51.392;10.234;2023-03-11T00:02:42;96433.13;;;-1.48;93.32
66880;BME280;53789;51.392;10.234;2023-03-11T00:03:04;96438.53;;;-1.48;92.56
66880;BME280;53789;51.392;10.234;2023-03-11T00:03:25;96430.16;;;-1.46;93.24
66880;BME280;53789;51.392;10.234;2023-03-11T00:03:45;96442.06;;;-1.47;92.97
66880;BME280;53789;51.392;10.234;2023-03-11T00:04:06;96438.81;;;-1.49;93.40
66880;BME280;53789;51.392;10.234;2023-03-11T00:04:26;96445.81;;;-1.48;92.85
66880;BME280;53789;51.392;10.234;2023-03-11T00:04:47;96427.50;;;-1.51;93.38
66880;BME280;53789;51.392;10.234;2023-03-11T00:05:08;96457.69;;;-1.49;94.11
66880;BME280;53789;51.392;10.234;2023-03-11T00:05:37;96442.56;;;-1.50;93.51
66880;BME280;53789;51.392;10.234;2023-03-11T00:06:00;96445.00;;;-1.49;93.38
66880;BME280;53789;51.392;10.234;2023-03-11T00:06:21;96438.28;;;-1.51;93.27
66880;BME280;53789;51.392;10.234;2023-03-11T00:06:41;96453.09;;;-1.49;94.06
66880;BME280;53789;51.392;10.234;2023-03-11T00:07:04;96439.34;;;-1.52;94.01
66880;BME280;53789;51.392;10.234;2023-03-11T00:07:24;96453.09;;;-1.49;94.31
66880;BME280;53789;51.392;10.234;2023-03-11T00:07:45;96447.97;;;-1.50;93.88
66880;BME280;53789;51.392;10.234;2023-03-11T00:08:07;96453.91;;;-1.48;94.52
66880;BME280;53789;51.392;10.234;2023-03-11T00:08:28;96456.06;;;-1.50;93.69
66880;BME280;53789;51.392;10.234;2023-03-11T00:08:49;96460.09;;;-1.48;94.50
66880;BME280;53789;51.392;10.234;2023-03-11T00:09:09;96462.53;;;-1.46;94.18
66880;BME280;53789;51.392;10.234;2023-03-11T00:09:29;96465.50;;;-1.48;94.67
66880;BME280;53789;51.392;10.234;2023-03-11T00:09:50;96450.66;;;-1.50;94.74
66880;BME280;53789;51.392;10.234;2023-03-11T00:10:15;96459.03;;;-1.52;94.62
66880;BME280;53789;51.392;10.234;2023-03-11T00:10:40;96466.56;;;-1.49;94.32
66880;BME280;53789;51.392;10.234;2023-03-11T00:11:01;96482.75;;;-1.49;94.27
66880;BME280;53789;51.392;10.234;2023-03-11T00:11:21;96470.09;;;-1.48;94.20
66880;BME280;53789;51.392;10.234;2023-03-11T00:11:41;96473.88;;;-1.49;94.64
66880;BME280;53789;51.392;10.234;2023-03-11T00:12:02;96478.97;;;-1.48;95.08
66880;BME280;53789;51.392;10.234;2023-03-11T00:12:23;96476.84;;;-1.46;94.42
66880;BME280;53789;51.392;10.234;2023-03-11T00:12:43;96468.75;;;-1.46;95.06
66880;BME280;53789;51.392;10.234;2023-03-11T00:13:05;96476.56;;;-1.44;95.77
66880;BME280;53789;51.392;10.234;2023-03-11T00:13:27;96475.19;;;-1.42;95.29
66880;BME280;53789;51.392;10.234;2023-03-11T00:13:47;96483.56;;;-1.43;95.19
66880;BME280;53789;51.392;10.234;2023-03-11T00:14:08;96483.28;;;-1.42;94.92
66880;BME280;53789;51.392;10.234;2023-03-11T00:14:28;96477.63;;;-1.40;94.79
66880;BME280;53789;51.392;10.234;2023-03-11T00:14:49;96488.41;;;-1.40;94.91
66880;BME280;53789;51.392;10.234;2023-03-11T00:15:09;96481.41;;;-1.41;93.86
66880;BME280;53789;51.392;10.234;2023-03-11T00:15:31;96474.66;;;-1.39;94.50
66880;BME280;53789;51.392;10.234;2023-03-11T00:15:53;96480.03;;;-1.39;94.79
66880;BME280;53789;51.392;10.234;2023-03-11T00:16:14;96494.91;;;-1.41;94.51
66880;BME280;53789;51.392;10.234;2023-03-11T00:16:34;96483.84;;;-1.40;95.65
66880;BME280;53789;51.392;10.234;2023-03-11T00:16:55;96488.41;;;-1.40;94.53
66880;BME280;53789;51.392;10.234;2023-03-11T00:17:15;96486.81;;;-1.41;94.18
66880;BME280;53789;51.392;10.234;2023-03-11T00:17:35;96491.09;;;-1.40;94.20
66880;BME280;53789;51.392;10.234;2023-03-11T00:17:56;96482.50;;;-1.42;95.52
66880;BME280;53789;51.392;10.234;2023-03-11T00:18:17;96497.31;;;-1.45;94.25
66880;BME280;53789;51.392;10.234;2023-03-11T00:18:37;96482.75;;;-1.44;95.40
66880;BME280;53789;51.392;10.234;2023-03-11T00:18:57;96482.75;;;-1.44;95.57
66880;BME280;53789;51.392;10.234;2023-03-11T00:19:18;96485.19;;;-1.42;94.25
66880;BME280;53789;51.392;10.234;2023-03-11T00:19:38;96486.81;;;-1.41;94.91
66880;BME280;53789;51.392;10.234;2023-03-11T00:19:58;96485.97;;;-1.42;94.93
66880;BME280;53789;51.392;10.234;2023-03-11T00:20:34;96488.13;;;-1.39;95.28
66880;BME280;53789;51.392;10.234;2023-03-11T00:20:57;96498.13;;;-1.39;94.47
66880;BME280;53789;51.392;10.234;2023-03-11T00:21:18;96489.25;;;-1.40;94.37
66880;BME280;53789;51.392;10.234;2023-03-11T00:21:38;96492.72;;;-1.39;94.54
66880;BME280;53789;51.392;10.234;2023-03-11T00:22:01;96487.06;;;-1.38;94.54
66880;BME280;53789;51.392;10.234;2023-03-11T00:22:21;96490.84;;;-1.39;93.98
66880;BME280;53789;51.392;10.234;2023-03-11T00:22:41;96501.63;;;-1.39;94.31
66880;BME280;53789;51.392;10.234;2023-03-11T00:23:03;96500.81;;;-1.39;93.88
66880;BME280;53789;51.392;10.234;2023-03-11T00:23:25;96496.22;;;-1.39;93.09
66880;BME280;53789;51.392;10.234;2023-03-11T00:23:45;96511.59;;;-1.39;93.42
66880;BME280;53789;51.392;10.234;2023-03-11T00:24:06;96503.78;;;-1.41;94.04
66880;BME280;53789;51.392;10.234;2023-03-11T00:24:26;96493.00;;;-1.41;93.71
66880;BME280;53789;51.392;10.234;2023-03-11T00:24:46;96499.75;;;-1.38;93.50
66880;BME280;53789;51.392;10.234;2023-03-11T00:25:09;96495.44;;;-1.39;93.89
66880;BME280;53789;51.392;10.234;2023-03-11T00:25:31;96497.84;;;-1.38;93.84
66880;BME280;53789;51.392;10.234;2023-03-11T00:25:52;96501.34;;;-1.37;93.44
66880;BME280;53789;51.392;10.234;2023-03-11T00:26:12;96516.72;;;-1.38;93.07
66880;BME280;53789;51.392;10.234;2023-03-11T00:26:33;96512.97;;;-1.42;92.13
66880;BME280;53789;51.392;10.234;2023-03-11T00:26:53;96513.78;;;-1.41;92.21
66880;BME280;53789;51.392;10.234;2023-03-11T00:27:13;96489.50;;;-1.41;92.29
66880;BME280;53789;51.392;10.234;2023-03-11T00:27:34;96486.81;;;-1.41;93.06
66880;BME280;53789;51.392;10.234;2023-03-11T00:27:55;96511.09;;;-1.41;91.82
66880;BME280;53789;51.392;10.234;2023-03-11T00:28:15;96494.63;;;-1.40;92.10
66880;BME280;53789;51.392;10.234;2023-03-11T00:28:36;96495.69;;;-1.41;92.01
66880;BME280;53789;51.392;10.234;2023-03-11T00:28:56;96488.69;;;-1.42;92.21
66880;BME280;53789;51.392;10.234;2023-03-11T00:29:16;96513.78;;;-1.41;92.32
66880;BME280;53789;51.392;10.234;2023-03-11T00:29:36;96493.28;;;-1.42;91.45
66880;BME280;53789;51.392;10.234;2023-03-11T00:29:57;96508.66;;;-1.43;91.75
66880;BME280;53789;51.392;10.234;2023-03-11T00:30:18;96505.97;;;-1.43;91.94
66880;BME280;53789;51.392;10.234;2023-03-11T00:30:40;96506.22;;;-1.39;92.48
66880;BME280;53789;51.392;10.234;2023-03-11T00:31:02;96508.13;;;-1.40;91.97
66880;BME280;53789;51.392;10.234;2023-03-11T00:31:22;96500.81;;;-1.39;91.94
66880;BME280;53789;51.392;10.234;2023-03-11T00:31:42;96503.53;;;-1.39;92.14
66880;BME280;53789;51.392;10.234;2023-03-11T00:32:03;96519.44;;;-1.38;93.05
66880;BME280;53789;51.392;10.234;2023-03-11T00:32:23;96513.25;;;-1.38;92.75
66880;BME280;53789;51.392;10.234;2023-03-11T00:32:43;96514.84;;;-1.37;92.60
66880;BME280;53789;51.392;10.234;2023-03-11T00:33:05;96512.41;;;-1.39;92.17
66880;BME280;53789;51.392;10.234;2023-03-11T00:33:25;96506.22;;;-1.39;91.92
66880;BME280;53789;51.392;10.234;2023-03-11T00:33:45;96507.84;;;-1.38;92.57
66880;BME280;53789;51.392;10.234;2023-03-11T00:34:06;96520.22;;;-1.37;92.47
66880;BME280;53789;51.392;10.234;2023-03-11T00:34:26;96522.94;;;-1.37;91.83
66880;BME280;53789;51.392;10.234;2023-03-11T00:34:46;96516.22;;;-1.40;91.17
66880;BME280;53789;51.392;10.234;2023-03-11T00:35:09;96514.84;;;-1.37;90.92
66880;BME280;53789;51.392;10.234;2023-03-11T00:35:32;96516.72;;;-1.38;91.82
66880;BME280;53789;51.392;10.234;2023-03-11T00:35:52;96523.75;;;-1.37;91.65
66880;BME280;53789;51.392;10.234;2023-03-11T00:36:23;96520.50;;;-1.39;91.56
66880;BME280;53789;51.392;10.234;2023-03-11T00:36:43;96523.47;;;-1.40;90.68
66880;BME280;53789;51.392;10.234;2023-03-11T00:37:04;96523.19;;;-1.39;91.35
66880;BME280;53789;51.392;10.234;2023-03-11T00:37:24;96524.81;;;-1.38;90.88
66880;BME280;53789;51.392;10.234;2023-03-11T00:37:46;96526.72;;;-1.38;90.78
66880;BME280;53789;51.392;10.234;2023-03-11T00:38:11;96528.31;;;-1.37;91.02
66880;BME280;53789;51.392;10.234;2023-03-11T00:38:31;96528.88;;;-1.35;90.69
66880;BME280;53789;51.392;10.234;2023-03-11T00:38:52;96518.34;;;-1.37;90.75
66880;BME280;53789;51.392;10.234;2023-03-11T00:39:12;96532.66;;;-1.36;91.28
66880;BME280;53789;51.392;10.234;2023-03-11T00:39:33;96539.09;;;-1.37;90.06
66880;BME280;53789;51.392;10.234;2023-03-11T00:39:53;96521.31;;;-1.38;90.69
66880;BME280;53789;51.392;10.234;2023-03-11T00:40:17;96526.44;;;-1.37;90.59
66880;BME280;53789;51.392;10.234;2023-03-11T00:40:38;96538.03;;;-1.36;90.17
66880;BME280;53789;51.392;10.234;2023-03-11T00:40:59;96519.16;;;-1.36;90.46
66880;BME280;53789;51.392;10.234;2023-03-11T00:41:19;96528.88;;;-1.35;91.22
66880;BME280;53789;51.392;10.234;2023-03-11T00:41:40;96529.69;;;-1.34;91.40
66880;BME280;53789;51.392;10.234;2023-03-11T00:42:00;96524.81;;;-1.38;90.46
66880;BME280;53789;51.392;10.234;2023-03-11T00:42:20;96524.81;;;-1.38;91.20
66880;BME280;53789;51.392;10.234;2023-03-11T00:42:41;96518.09;;;-1.35;91.06
66880;BME280;53789;51.392;10.234;2023-03-11T00:43:02;96534.78;;;-1.33;91.56
66880;BME280;53789;51.392;10.234;2023-03-11T00:43:22;96531.03;;;-1.32;91.35
66880;BME280;53789;51.392;10.234;2023-03-11T00:43:42;96536.94;;;-1.30;91.29
66880;BME280;53789;51.392;10.234;2023-03-11T00:44:03;96542.34;;;-1.30;91.32
66880;BME280;53789;51.392;10.234;2023-03-11T00:44:23;96533.44;;;-1.30;90.06
66880;BME280;53789;51.392;10.234;2023-03-11T00:44:43;96545.88;;;-1.29;89.96
66880;BME280;53789;51.392;10.234;2023-03-11T00:45:04;96542.63;;;-1.31;90.77
66880;BME280;53789;51.392;10.234;2023-03-11T00:45:26;96542.09;;;-1.33;89.90
66880;BME280;53789;51.392;10.234;2023-03-11T00:45:47;96549.13;;;-1.32;89.79
66880;BME280;53789;51.392;10.234;2023-03-11T00:46:08;96528.34;;;-1.32;90.91
66880;BME280;53789;51.392;10.234;2023-03-11T00:46:28;96545.59;;;-1.33;90.13
66880;BME280;53789;51.392;10.234;2023-03-11T00:46:49;96533.72;;;-1.32;89.74
66880;BME280;53789;51.392;10.234;2023-03-11T00:47:10;96542.63;;;-1.31;90.39
66880;BME280;53789;51.392;10.234;2023-03-11T00:47:31;96539.91;;;-1.31;90.66
66880;BME280;53789;51.392;10.234;2023-03-11T00:47:52;96551.81;;;-1.32;89.98
66880;BME280;53789;51.392;10.234;2023-03-11T00:48:13;96544.50;;;-1.32;89.88
66880;BME280;53789;51.392;10.234;2023-03-11T00:48:33;96560.69;;;-1.32;89.40
66880;BME280;53789;51.392;10.234;2023-03-11T00:48:54;96562.31;;;-1.31;89.37
66880;BME280;53789;51.392;10.234;2023-03-11T00:49:14;96563.66;;;-1.33;89.14
66880;BME280;53789;51.392;10.234;2023-03-11T00:49:34;96562.03;;;-1.34;89.07
66880;BME280;53789;51.392;10.234;2023-03-11T00:49:55;96564.19;;;-1.31;89.56
66880;BME280;53789;51.392;10.234;2023-03-11T00:50:19;96562.03;;;-1.34;89.66
66880;BME280;53789;51.392;10.234;2023-03-11T00:50:40;96559.06;;;-1.33;89.92
66880;BME280;53789;51.392;10.234;2023-03-11T00:51:00;96558.28;;;-1.33;89.52
66880;BME280;53789;51.392;10.234;2023-03-11T00:51:21;96567.44;;;-1.34;90.19
66880;BME280;53789;51.392;10.234;2023-03-11T00:51:42;96563.38;;;-1.37;89.88
66880;BME280;53789;51.392;10.234;2023-03-11T00:52:03;96572.56;;;-1.38;89.53
66880;BME280;53789;51.392;10.234;2023-03-11T00:52:23;96567.19;;;-1.38;90.15
66880;BME280;53789;51.392;10.234;2023-03-11T00:52:45;96567.97;;;-1.38;89.58
66880;BME280;53789;51.392;10.234;2023-03-11T00:53:05;96559.34;;;-1.40;89.84
66880;BME280;53789;51.392;10.234;2023-03-11T00:53:26;96575.53;;;-1.40;89.50
66880;BME280;53789;51.392;10.234;2023-03-11T00:53:46;96573.91;;;-1.41;89.80
66880;BME280;53789;51.392;10.234;2023-03-11T00:54:06;96569.59;;;-1.42;90.06
66880;BME280;53789;51.392;10.234;2023-03-11T00:54:26;96561.22;;;-1.40;89.21
66880;BME280;53789;51.392;10.234;2023-03-11T00:54:47;96564.75;;;-1.40;90.18
66880;BME280;53789;51.392;10.234;2023-03-11T00:55:09;96579.03;;;-1.39;89.93
66880;BME280;53789;51.392;10.234;2023-03-11T00:55:31;96573.38;;;-1.38;90.48
66880;BME280;53789;51.392;10.234;2023-03-11T00:55:52;96578.78;;;-1.38;90.13
66880;BME280;53789;51.392;10.234;2023-03-11T00:56:14;96583.09;;;-1.37;90.29
66880;BME280;53789;51.392;10.234;2023-03-11T00:56:34;96577.13;;;-1.39;90.41
66880;BME280;53789;51.392;10.234;2023-03-11T00:56:55;96578.78;;;-1.38;89.92
66880;BME280;53789;51.392;10.234;2023-03-11T00:57:15;96584.16;;;-1.38;90.04
66880;BME280;53789;51.392;10.234;2023-03-11T00:57:35;96581.75;;;-1.39;89.05
66880;BME280;53789;51.392;10.234;2023-03-11T00:57:59;96579.03;;;-1.39;89.95
66880;BME280;53789;51.392;10.234;2023-03-11T00:58:19;96576.06;;;-1.38;90.13
66880;BME280;53789;51.392;10.234;2023-03-11T00:58:42;96584.97;;;-1.37;90.70
66880;BME280;53789;51.392;10.234;2023-03-11T00:59:03;96597.38;;;-1.36;89.80
66880;BME280;53789;51.392;10.234;2023-03-11T00:59:23;96585.53;;;-1.35;89.53
66880;BME280;53789;51.392;10.234;2023-03-11T00:59:43;96585.78;;;-1.37;90.36
66880;BME280;53789;51.392;10.234;2023-03-11T01:00:04;96590.34;;;-1.37;89.44
66880;BME280;53789;51.392;10.234;2023-03-11T01:00:26;96587.66;;;-1.37;90.38
66880;BME280;53789;51.392;10.234;2023-03-11T01:00:47;96584.16;;;-1.38;89.88
66880;BME280;53789;51.392;10.234;2023-03-11T01:01:15;96592.53;;;-1.39;89.33
66880;BME280;53789;51.392;10.234;2023-03-11T01:01:36;96589.28;;;-1.36;89.42
66880;BME280;53789;51.392;10.234;2023-03-11T01:01:57;96594.69;;;-1.36;89.18
66880;BME280;53789;51.392;10.234;2023-03-11T01:02:17;96582.81;;;-1.40;88.55
66880;BME280;53789;51.392;10.234;2023-03-11T01:02:37;96589.56;;;-1.38;88.57
66880;BME280;53789;51.392;10.234;2023-03-11T01:02:58;96587.66;;;-1.37;89.46
66880;BME280;53789;51.392;10.234;2023-03-11T01:03:19;96594.16;;;-1.38;88.75
66880;BME280;53789;51.392;10.234;2023-03-11T01:03:40;96575.00;;;-1.37;89.55
66880;BME280;53789;51.392;10.234;2023-03-11T01:04:00;96595.75;;;-1.37;89.68
66880;BME280;53789;51.392;10.234;2023-03-11T01:04:20;96597.13;;;-1.40;89.02
66880;BME280;53789;51.392;10.234;2023-03-11T01:04:41;96593.59;;;-1.40;89.19
66880;BME280;53789;51.392;10.234;2023-03-11T01:05:01;96582.81;;;-1.40;90.08
66880;BME280;53789;51.392;10.234;2023-03-11T01:05:26;96597.91;;;-1.39;89.55
66880;BME280;53789;51.392;10.234;2023-03-11T01:05:47;96593.31;;;-1.39;89.45
66880;BME280;53789;51.392;10.234;2023-03-11T01:06:08;96595.50;;;-1.41;89.66
66880;BME280;53789;51.392;10.234;2023-03-11T01:06:28;96604.13;;;-1.39;89.39
66880;BME280;53789;51.392;10.234;2023-03-11T01:06:49;96605.22;;;-1.40;89.88
66880;BME280;53789;51.392;10.234;2023-03-11T01:07:09;96612.22;;;-1.39;88.95
66880;BME280;53789;51.392;10.234;2023-03-11T01:07:29;96607.63;;;-1.38;89.43
66880;BME280;53789;51.392;10.234;2023-03-11T01:07:50;96601.16;;;-1.37;89.42
66880;BME280;53789;51.392;10.234;2023-03-11T01:08:10;96605.47;;;-1.36;90.25
66880;BME280;53789;51.392;10.234;2023-03-11T01:08:31;96604.66;;;-1.37;89.48
66880;BME280;53789;51.392;10.234;2023-03-11T01:08:51;96600.34;;;-1.38;88.83
66880;BME280;53789;51.392;10.234;2023-03-11T01:09:12;96606.00;;;-1.39;88.93
66880;BME280;53789;51.392;10.234;2023-03-11T01:09:32;96602.50;;;-1.40;88.66
66880;BME280;53789;51.392;10.234;2023-03-11T01:09:52;96611.13;;;-1.38;89.95
66880;BME280;53789;51.392;10.234;2023-03-11T01:10:14;96597.66;;;-1.38;90.06
66880;BME280;53789;51.392;10.234;2023-03-11T01:10:35;96607.91;;;-1.34;89.74
66880;BME280;53789;51.392;10.234;2023-03-11T01:10:57;96596.84;;;-1.33;89.35
66880;BME280;53789;51.392;10.234;2023-03-11T01:11:17;96613.84;;;-1.32;89.25
66880;BME280;53789;51.392;10.234;2023-03-11T01:11:38;96612.75;;;-1.31;89.64
66880;BME280;53789;51.392;10.234;2023-03-11T01:11:58;96620.56;;;-1.30;89.51
66880;BME280;53789;51.392;10.234;2023-03-11T01:12:18;96614.09;;;-1.29;89.14
66880;BME280;53789;51.392;10.234;2023-03-11T01:12:39;96619.50;;;-1.29;88.82
66880;BME280;53789;51.392;10.234;2023-03-11T01:12:59;96613.03;;;-1.28;89.71
66880;BME280;53789;51.392;10.234;2023-03-11T01:13:19;96616.00;;;-1.29;89.86
66880;BME280;53789;51.392;10.234;2023-03-11T01:13:40;96617.06;;;-1.30;90.33
66880;BME280;53789;51.392;10.234;2023-03-11T01:14:01;96624.38;;;-1.31;89.59
66880;BME280;53789;51.392;10.234;2023-03-11T01:14:21;96624.91;;;-1.29;89.14
66880;BME280;53789;51.392;10.234;2023-03-11T01:14:42;96627.88;;;-1.30;89.64
66880;BME280;53789;51.392;10.234;2023-03-11T01:15:03;96631.63;;;-1.31;89.17
66880;BME280;53789;51.392;10.234;2023-03-11T01:15:29;96604.94;;;-1.33;89.62
66880;BME280;53789;51.392;10.234;2023-03-11T01:15:50;96618.69;;;-1.34;89.62
66880;BME280;53789;51.392;10.234;2023-03-11T01:16:11;96621.94;;;-1.32;89.59
66880;BME280;53789;51.392;10.234;2023-03-11T01:16:31;96629.22;;;-1.33;89.48
66880;BME280;53789;51.392;10.234;2023-03-11T01:16:52;96631.63;;;-1.31;90.08
66880;BME280;53789;51.392;10.234;2023-03-11T01:17:12;96628.66;;;-1.30;90.08
66880;BME280;53789;51.392;10.234;2023-03-11T01:17:32;96635.97;;;-1.30;90.22
66880;BME280;53789;51.392;10.234;2023-03-11T01:17:52;96628.94;;;-1.31;90.04
66880;BME280;53789;51.392;10.234;2023-03-11T01:18:13;96628.13;;;-1.32;90.36
66880;BME280;53789;51.392;10.234;2023-03-11T01:18:34;96624.09;;;-1.29;89.51
66880;BME280;53789;51.392;10.234;2023-03-11T01:18:54;96637.84;;;-1.31;90.66
66880;BME280;53789;51.392;10.234;2023-03-11T01:19:14;96641.34;;;-1.30;89.98
66880;BME280;53789;51.392;10.234;2023-03-11T01:19:35;96634.34;;;-1.31;89.92
66880;BME280;53789;51.392;10.234;2023-03-11T01:19:55;96642.97;;;-1.34;90.10
66880;BME280;53789;51.392;10.234;2023-03-11T01:20:16;96633.78;;;-1.39;89.39
66880;BME280;53789;51.392;10.234;2023-03-11T01:20:37;96630.28;;;-1.39;89.86
66880;BME280;53789;51.392;10.234;2023-03-11T01:20:58;96634.63;;;-1.38;89.45
66880;BME280;53789;51.392;10.234;2023-03-11T01:21:18;96632.19;;;-1.40;88.95
66880;BME280;53789;51.392;10.234;2023-03-11T01:21:39;96634.06;;;-1.40;89.46
66880;BME280;53789;51.392;10.234;2023-03-11T01:21:59;96632.44;;;-1.41;89.46
66880;BME280;53789;51.392;10.234;2023-03-11T01:22:20;96640.81;;;-1.43;89.39
66880;BME280;53789;51.392;10.234;2023-03-11T01:22:40;96638.91;;;-1.42;88.59
66880;BME280;53789;51.392;10.234;2023-03-11T01:23:00;96636.22;;;-1.42;89.21
66880;BME280;53789;51.392;10.234;2023-03-11T01:23:21;96637.84;;;-1.41;88.20
66880;BME280;53789;51.392;10.234;2023-03-11T01:23:41;96637.28;;;-1.43;89.52
66880;BME280;53789;51.392;10.234;2023-03-11T01:24:02;96635.41;;;-1.43;88.56
66880;BME280;53789;51.392;10.234;2023-03-11T01:24:22;96639.72;;;-1.42;88.81
66880;BME280;53789;51.392;10.234;2023-03-11T01:24:43;96633.53;;;-1.42;88.67
66880;BME280;53789;51.392;10.234;2023-03-11T01:25:03;96632.44;;;-1.41;88.23
66880;BME280;53789;51.392;10.234;2023-03-11T01:25:24;96631.91;;;-1.43;89.16
66880;BME280;53789;51.392;10.234;2023-03-11T01:25:45;96634.59;;;-1.43;88.87
66880;BME280;53789;51.392;10.234;2023-03-11T01:26:06;96641.63;;;-1.42;89.14
66880;BME280;53789;51.392;10.234;2023-03-11T01:26:26;96638.13;;;-1.43;89.03
66880;BME280;53789;51.392;10.234;2023-03-11T01:26:47;96640.53;;;-1.41;89.16
66880;BME280;53789;51.392;10.234;2023-03-11T01:27:07;96634.59;;;-1.43;88.80
66880;BME280;53789;51.392;10.234;2023-03-11T01:27:27;96635.16;;;-1.41;88.90
66880;BME280;53789;51.392;10.234;2023-03-11T01:27:48;96637.03;;;-1.42;88.59
66880;BME280;53789;51.392;10.234;2023-03-11T01:28:08;96645.94;;;-1.41;89.11
66880;BME280;53789;51.392;10.234;2023-03-11T01:28:28;96646.47;;;-1.39;88.46
66880;BME280;53789;51.392;10.234;2023-03-11T01:28:48;96657.00;;;-1.38;89.16
66880;BME280;53789;51.392;10.234;2023-03-11T01:29:09;96646.47;;;-1.39;88.73
66880;BME280;53789;51.392;10.234;2023-03-11T01:29:29;96661.03;;;-1.40;89.70
66880;BME280;53789;51.392;10.234;2023-03-11T01:29:49;96650.78;;;-1.43;89.58
66880;BME280;53789;51.392;10.234;2023-03-11T01:30:13;96658.34;;;-1.45;88.63
66880;BME280;53789;51.392;10.234;2023-03-11T01:30:37;96644.84;;;-1.45;89.10
66880;BME280;53789;51.392;10.234;2023-03-11T01:30:58;96665.63;;;-1.46;88.49
66880;BME280;53789;51.392;10.234;2023-03-11T01:31:19;96665.06;;;-1.48;88.38
66880;BME280;53789;51.392;10.234;2023-03-11T01:31:39;96655.63;;;-1.50;88.66
66880;BME280;53789;51.392;10.234;2023-03-11T01:31:59;96666.97;;;-1.48;88.82
66880;BME280;53789;51.392;10.234;2023-03-11T01:32:19;96661.56;;;-1.48;89.25
66880;BME280;53789;51.392;10.234;2023-03-11T01:32:40;96663.44;;;-1.49;88.83
66880;BME280;53789;51.392;10.234;2023-03-11T01:33:01;96664.81;;;-1.51;89.17
66880;BME280;53789;51.392;10.234;2023-03-11T01:33:21;96651.59;;;-1.53;88.81
66880;BME280;53789;51.392;10.234;2023-03-11T01:33:41;96652.66;;;-1.49;88.32
66880;BME280;53789;51.392;10.234;2023-03-11T01:34:02;96662.38;;;-1.48;88.67
66880;BME280;53789;51.392;10.234;2023-03-11T01:34:22;96660.22;;;-1.51;89.22
66880;BME280;53789;51.392;10.234;2023-03-11T01:34:42;96658.03;;;-1.49;88.80
66880;BME280;53789;51.392;10.234;2023-03-11T01:35:03;96657.81;;;-1.47;89.37
66880;BME280;53789;51.392;10.234;2023-03-11T01:35:26;96664.78;;;-1.46;89.27
66880;BME280;53789;51.392;10.234;2023-03-11T01:35:46;96665.06;;;-1.48;89.33
66880;BME280;53789;51.392;10.234;2023-03-11T01:36:07;96668.03;;;-1.49;88.60
66880;BME280;53789;51.392;10.234;2023-03-11T01:36:27;96662.63;;;-1.49;88.13
66880;BME280;53789;51.392;10.234;2023-03-11T01:36:47;96667.75;;;-1.48;88.34
66880;BME280;53789;51.392;10.234;2023-03-11T01:37:08;96676.69;;;-1.47;88.61
66880;BME280;53789;51.392;10.234;2023-03-11T01:37:28;96673.16;;;-1.48;88.74
66880;BME280;53789;51.392;10.234;2023-03-11T01:37:48;96672.09;;;-1.47;88.82
66880;BME280;53789;51.392;10.234;2023-03-11T01:38:10;96676.69;;;-1.47;88.66
66880;BME280;53789;51.392;10.234;2023-03-11T01:38:30;96682.06;;;-1.47;89.21
66880;BME280;53789;51.392;10.234;2023-03-11T01:38:51;96680.19;;;-1.47;88.67
66880;BME280;53789;51.392;10.234;2023-03-11T01:39:11;96672.88;;;-1.46;89.23
66880;BME280;53789;51.392;10.234;2023-03-11T01:39:31;96667.75;;;-1.48;88.73
66880;BME280;53789;51.392;10.234;2023-03-11T01:39:51;96672.88;;;-1.46;88.63
66880;BME280;53789;51.392;10.234;2023-03-11T01:40:17;96674.25;;;-1.44;88.12
66880;BME280;53789;51.392;10.234;2023-03-11T01:40:44;96690.16;;;-1.42;89.63
66880;BME280;53789;51.392;10.234;2023-03-11T01:41:05;96678.56;;;-1.43;88.34
66880;BME280;53789;51.392;10.234;2023-03-11T01:41:25;96691.78;;;-1.41;89.45
66880;BME280;53789;51.392;10.234;2023-03-11T01:41:45;96678.84;;;-1.39;88.39
66880;BME280;53789;51.392;10.234;2023-03-11T01:42:06;96684.22;;;-1.39;88.46
66880;BME280;53789;51.392;10.234;2023-03-11T01:42:26;96683.97;;;-1.38;88.95
66880;BME280;53789;51.392;10.234;2023-03-11T01:42:46;96693.41;;;-1.35;88.68
66880;BME280;53789;51.392;10.234;2023-03-11T01:43:56;96686.13;;;-1.34;89.15
66880;BME280;53789;51.392;10.234;2023-03-11T01:44:16;96683.44;;;-1.34;88.92
66880;BME280;53789;51.392;10.234;2023-03-11T01:44:36;96688.56;;;-1.33;88.28
66880;BME280;53789;51.392;10.234;2023-03-11T01:44:57;96690.19;;;-1.32;88.54
66880;BME280;53789;51.392;10.234;2023-03-11T01:46:17;96701.78;;;-1.37;88.53
66880;BME280;53789;51.392;10.234;2023-03-11T01:47:38;96705.53;;;-1.38;88.26
66880;BME280;53789;51.392;10.234;2023-03-11T01:47:59;96695.81;;;-1.39;88.59
66880;BME280;53789;51.392;10.234;2023-03-11T01:48:19;96703.13;;;-1.39;87.92
66880;BME280;53789;51.392;10.234;2023-03-11T01:48:45;96706.34;;;-1.37;88.20
66880;BME280;53789;51.392;10.234;2023-03-11T01:49:11;96710.66;;;-1.36;87.81
66880;BME280;53789;51.392;10.234;2023-03-11T01:49:31;96711.75;;;-1.37;88.55
66880;BME280;53789;51.392;10.234;2023-03-11T01:49:52;96708.81;;;-1.36;88.79
66880;BME280;53789;51.392;10.234;2023-03-11T01:50:12;96705.84;;;-1.34;89.38
66880;BME280;53789;51.392;10.234;2023-03-11T01:50:42;96714.19;;;-1.36;87.61
66880;BME280;53789;51.392;10.234;2023-03-11T01:51:03;96706.91;;;-1.35;88.89
66880;BME280;53789;51.392;10.234;2023-03-11T01:51:37;96697.19;;;-1.41;88.88
66880;BME280;53789;51.392;10.234;2023-03-11T01:52:03;96710.41;;;-1.40;89.08
66880;BME280;53789;51.392;10.234;2023-03-11T01:52:25;96712.84;;;-1.38;89.18
66880;BME280;53789;51.392;10.234;2023-03-11T01:52:46;96720.66;;;-1.37;89.49
66880;BME280;53789;51.392;10.234;2023-03-11T01:53:07;96719.03;;;-1.38;88.99